sensor_id;sensor_type;location;lat;lon;timestamp;P1;durP1;ratioP1;P2;durP2;ratioP2
52102;SDS011;38101;53.126;6.878;2022-11-15T00:01:52;22.00;;;17.23;;
52102;SDS011;38101;53.126;6.878;2022-11-15T00:04:18;23.42;;;16.20;;
52102;SDS011;38101;53.126;6.878;2022-11-15T00:06:44;21.52;;;16.80;;
52102;SDS011;38101;53.126;6.878;2022-11-15T00:09:09;22.88;;;17.15;;
52102;SDS011;38101;53.126;6.878;2022-11-15T00:11:35;24.15;;;17.55;;
52102;SDS011;38101;53.126;6.878;2022-11-15T00:14:00;23.73;;;16.98;;
52102;SDS011;38101;53.126;6.878;2022-11-15T00:16:29;23.25;;;17.50;;
52102;SDS011;38101;53.126;6.878;2022-11-15T00:18:54;25.08;;;16.85;;
52102;SDS011;38101;53.126;6.878;2022-11-15T00:21:22;21.17;;;16.38;;
52102;SDS011;38101;53.126;6.878;2022-11-15T00:23:47;23.33;;;16.98;;
52102;SDS011;38101;53.126;6.878;2022-11-15T00:26:14;23.17;;;17.10;;
52102;SDS011;38101;53.126;6.878;2022-11-15T00:28:41;23.38;;;17.00;;
52102;SDS011;38101;53.126;6.878;2022-11-15T00:31:08;20.95;;;15.70;;
52102;SDS011;38101;53.126;6.878;2022-11-15T00:33:36;26.60;;;17.70;;
52102;SDS011;38101;53.126;6.878;2022-11-15T00:36:03;22.85;;;16.38;;
52102;SDS011;38101;53.126;6.878;2022-11-15T00:38:33;21.92;;;16.20;;
52102;SDS011;38101;53.126;6.878;2022-11-15T00:41:01;20.95;;;15.60;;
52102;SDS011;38101;53.126;6.878;2022-11-15T00:43:28;21.67;;;16.55;;
52102;SDS011;38101;53.126;6.878;2022-11-15T00:45:54;21.45;;;16.48;;
52102;SDS011;38101;53.126;6.878;2022-11-15T00:48:19;22.25;;;16.55;;
52102;SDS011;38101;53.126;6.878;2022-11-15T00:50:45;19.92;;;16.40;;
52102;SDS011;38101;53.126;6.878;2022-11-15T00:53:11;22.20;;;16.45;;
52102;SDS011;38101;53.126;6.878;2022-11-15T00:55:36;21.52;;;15.90;;
52102;SDS011;38101;53.126;6.878;2022-11-15T00:58:02;22.35;;;15.80;;
52102;SDS011;38101;53.126;6.878;2022-11-15T01:00:28;22.05;;;16.02;;
52102;SDS011;38101;53.126;6.878;2022-11-15T01:02:54;18.98;;;14.50;;
52102;SDS011;38101;53.126;6.878;2022-11-15T01:05:20;19.15;;;15.13;;
52102;SDS011;38101;53.126;6.878;2022-11-15T01:07:46;20.17;;;14.77;;
52102;SDS011;38101;53.126;6.878;2022-11-15T01:10:11;21.77;;;14.70;;
52102;SDS011;38101;53.126;6.878;2022-11-15T01:12:37;22.83;;;15.15;;
52102;SDS011;38101;53.126;6.878;2022-11-15T01:15:04;20.70;;;15.27;;
52102;SDS011;38101;53.126;6.878;2022-11-15T01:17:30;19.65;;;14.77;;
52102;SDS011;38101;53.126;6.878;2022-11-15T01:19:56;22.20;;;15.25;;
52102;SDS011;38101;53.126;6.878;2022-11-15T01:22:22;20.27;;;15.15;;
52102;SDS011;38101;53.126;6.878;2022-11-15T01:24:49;19.27;;;15.02;;
52102;SDS011;38101;53.126;6.878;2022-11-15T01:27:15;19.88;;;15.18;;
52102;SDS011;38101;53.126;6.878;2022-11-15T01:29:41;21.83;;;16.25;;
52102;SDS011;38101;53.126;6.878;2022-11-15T01:32:06;21.80;;;16.45;;
52102;SDS011;38101;53.126;6.878;2022-11-15T01:34:32;21.63;;;16.48;;
52102;SDS011;38101;53.126;6.878;2022-11-15T01:36:58;22.95;;;16.83;;
52102;SDS011;38101;53.126;6.878;2022-11-15T01:39:24;20.98;;;16.20;;
52102;SDS011;38101;53.126;6.878;2022-11-15T01:41:49;24.92;;;16.73;;
52102;SDS011;38101;53.126;6.878;2022-11-15T01:44:34;21.33;;;15.98;;
52102;SDS011;38101;53.126;6.878;2022-11-15T01:47:19;21.70;;;16.17;;
52102;SDS011;38101;53.126;6.878;2022-11-15T01:50:16;25.17;;;16.45;;
52102;SDS011;38101;53.126;6.878;2022-11-15T01:52:46;26.10;;;16.90;;
52102;SDS011;38101;53.126;6.878;2022-11-15T01:55:14;23.02;;;16.17;;
52102;SDS011;38101;53.126;6.878;2022-11-15T01:57:46;23.63;;;16.08;;
52102;SDS011;38101;53.126;6.878;2022-11-15T02:00:16;24.65;;;16.05;;
52102;SDS011;38101;53.126;6.878;2022-11-15T02:02:42;22.23;;;16.33;;
52102;SDS011;38101;53.126;6.878;2022-11-15T02:05:08;24.55;;;16.15;;
52102;SDS011;38101;53.126;6.878;2022-11-15T02:07:34;21.23;;;15.63;;
52102;SDS011;38101;53.126;6.878;2022-11-15T02:10:07;21.67;;;15.15;;
52102;SDS011;38101;53.126;6.878;2022-11-15T02:12:44;23.17;;;15.50;;
52102;SDS011;38101;53.126;6.878;2022-11-15T02:15:11;26.63;;;16.17;;
52102;SDS011;38101;53.126;6.878;2022-11-15T02:23:22;22.80;;;15.60;;
52102;SDS011;38101;53.126;6.878;2022-11-15T02:34:30;22.23;;;14.98;;
52102;SDS011;38101;53.126;6.878;2022-11-15T02:37:20;25.92;;;16.27;;
52102;SDS011;38101;53.126;6.878;2022-11-15T02:40:17;24.02;;;15.52;;
52102;SDS011;38101;53.126;6.878;2022-11-15T02:42:54;21.70;;;15.20;;
52102;SDS011;38101;53.126;6.878;2022-11-15T02:45:44;21.77;;;15.65;;
52102;SDS011;38101;53.126;6.878;2022-11-15T02:48:14;22.98;;;15.18;;
52102;SDS011;38101;53.126;6.878;2022-11-15T02:50:41;24.33;;;16.08;;
52102;SDS011;38101;53.126;6.878;2022-11-15T02:53:08;26.80;;;16.42;;
52102;SDS011;38101;53.126;6.878;2022-11-15T02:55:38;26.70;;;16.70;;
52102;SDS011;38101;53.126;6.878;2022-11-15T02:58:23;22.80;;;15.60;;
52102;SDS011;38101;53.126;6.878;2022-11-15T03:03:52;22.10;;;15.80;;
52102;SDS011;38101;53.126;6.878;2022-11-15T03:06:43;23.65;;;14.90;;
52102;SDS011;38101;53.126;6.878;2022-11-15T03:12:12;22.58;;;15.43;;
52102;SDS011;38101;53.126;6.878;2022-11-15T03:17:50;26.08;;;16.55;;
52102;SDS011;38101;53.126;6.878;2022-11-15T03:20:18;24.23;;;16.17;;
52102;SDS011;38101;53.126;6.878;2022-11-15T03:22:45;22.80;;;15.18;;
52102;SDS011;38101;53.126;6.878;2022-11-15T03:25:13;26.77;;;16.77;;
52102;SDS011;38101;53.126;6.878;2022-11-15T03:27:46;25.65;;;16.05;;
52102;SDS011;38101;53.126;6.878;2022-11-15T03:30:15;25.08;;;16.10;;
52102;SDS011;38101;53.126;6.878;2022-11-15T03:32:43;25.30;;;16.63;;
52102;SDS011;38101;53.126;6.878;2022-11-15T03:35:23;26.08;;;16.73;;
52102;SDS011;38101;53.126;6.878;2022-11-15T03:40:24;24.35;;;16.38;;
52102;SDS011;38101;53.126;6.878;2022-11-15T03:46:07;28.92;;;17.92;;
52102;SDS011;38101;53.126;6.878;2022-11-15T03:48:40;29.00;;;17.40;;
52102;SDS011;38101;53.126;6.878;2022-11-15T03:51:09;29.92;;;17.30;;
52102;SDS011;38101;53.126;6.878;2022-11-15T03:53:36;25.40;;;17.90;;
52102;SDS011;38101;53.126;6.878;2022-11-15T03:56:02;28.75;;;17.65;;
52102;SDS011;38101;53.126;6.878;2022-11-15T03:58:27;27.45;;;17.33;;
52102;SDS011;38101;53.126;6.878;2022-11-15T04:00:53;30.20;;;17.60;;
52102;SDS011;38101;53.126;6.878;2022-11-15T04:03:19;27.45;;;17.00;;
52102;SDS011;38101;53.126;6.878;2022-11-15T04:05:44;29.17;;;17.65;;
52102;SDS011;38101;53.126;6.878;2022-11-15T04:08:10;28.13;;;17.13;;
52102;SDS011;38101;53.126;6.878;2022-11-15T04:10:35;27.60;;;16.92;;
52102;SDS011;38101;53.126;6.878;2022-11-15T04:13:01;28.95;;;16.75;;
52102;SDS011;38101;53.126;6.878;2022-11-15T04:15:27;27.02;;;17.33;;
52102;SDS011;38101;53.126;6.878;2022-11-15T04:17:55;27.90;;;17.38;;
52102;SDS011;38101;53.126;6.878;2022-11-15T04:20:25;25.58;;;16.45;;
52102;SDS011;38101;53.126;6.878;2022-11-15T04:23:16;29.45;;;17.40;;
52102;SDS011;38101;53.126;6.878;2022-11-15T04:26:09;29.88;;;17.02;;
52102;SDS011;38101;53.126;6.878;2022-11-15T04:28:41;27.60;;;17.67;;
52102;SDS011;38101;53.126;6.878;2022-11-15T04:31:25;27.50;;;17.52;;
52102;SDS011;38101;53.126;6.878;2022-11-15T04:33:51;30.15;;;17.00;;
52102;SDS011;38101;53.126;6.878;2022-11-15T04:36:17;28.48;;;16.98;;
52102;SDS011;38101;53.126;6.878;2022-11-15T04:39:02;31.98;;;17.73;;
52102;SDS011;38101;53.126;6.878;2022-11-15T04:41:28;27.25;;;17.40;;
52102;SDS011;38101;53.126;6.878;2022-11-15T04:43:54;31.30;;;18.67;;
52102;SDS011;38101;53.126;6.878;2022-11-15T04:46:20;31.13;;;18.17;;
52102;SDS011;38101;53.126;6.878;2022-11-15T04:48:46;30.40;;;17.63;;
52102;SDS011;38101;53.126;6.878;2022-11-15T04:51:12;31.55;;;18.75;;
52102;SDS011;38101;53.126;6.878;2022-11-15T04:53:38;25.27;;;17.65;;
52102;SDS011;38101;53.126;6.878;2022-11-15T04:56:03;28.13;;;17.42;;
52102;SDS011;38101;53.126;6.878;2022-11-15T04:58:29;30.48;;;18.58;;
52102;SDS011;38101;53.126;6.878;2022-11-15T05:00:55;32.45;;;18.35;;
52102;SDS011;38101;53.126;6.878;2022-11-15T05:03:21;30.10;;;17.48;;
52102;SDS011;38101;53.126;6.878;2022-11-15T05:06:05;28.60;;;18.73;;
52102;SDS011;38101;53.126;6.878;2022-11-15T05:08:31;33.13;;;19.52;;
52102;SDS011;38101;53.126;6.878;2022-11-15T05:10:57;33.97;;;19.23;;
52102;SDS011;38101;53.126;6.878;2022-11-15T05:13:23;32.35;;;20.20;;
52102;SDS011;38101;53.126;6.878;2022-11-15T05:15:49;32.55;;;20.48;;
52102;SDS011;38101;53.126;6.878;2022-11-15T05:18:14;34.72;;;20.83;;
52102;SDS011;38101;53.126;6.878;2022-11-15T05:20:40;33.55;;;20.33;;
52102;SDS011;38101;53.126;6.878;2022-11-15T05:23:06;38.05;;;21.08;;
52102;SDS011;38101;53.126;6.878;2022-11-15T05:25:32;36.45;;;21.67;;
52102;SDS011;38101;53.126;6.878;2022-11-15T05:27:57;36.60;;;21.75;;
52102;SDS011;38101;53.126;6.878;2022-11-15T05:30:23;35.00;;;22.35;;
52102;SDS011;38101;53.126;6.878;2022-11-15T05:32:49;38.22;;;22.95;;
52102;SDS011;38101;53.126;6.878;2022-11-15T05:35:18;39.90;;;22.42;;
52102;SDS011;38101;53.126;6.878;2022-11-15T05:37:50;35.38;;;21.85;;
52102;SDS011;38101;53.126;6.878;2022-11-15T05:40:16;44.70;;;24.83;;
52102;SDS011;38101;53.126;6.878;2022-11-15T05:42:41;44.97;;;22.75;;
52102;SDS011;38101;53.126;6.878;2022-11-15T05:45:07;40.55;;;23.83;;
52102;SDS011;38101;53.126;6.878;2022-11-15T05:47:34;42.80;;;25.05;;
52102;SDS011;38101;53.126;6.878;2022-11-15T05:50:02;50.22;;;25.98;;
52102;SDS011;38101;53.126;6.878;2022-11-15T05:52:29;42.63;;;24.27;;
52102;SDS011;38101;53.126;6.878;2022-11-15T05:54:59;43.40;;;25.33;;
52102;SDS011;38101;53.126;6.878;2022-11-15T05:57:26;43.85;;;25.05;;
52102;SDS011;38101;53.126;6.878;2022-11-15T05:59:52;44.38;;;25.58;;
52102;SDS011;38101;53.126;6.878;2022-11-15T06:02:19;40.83;;;24.23;;
52102;SDS011;38101;53.126;6.878;2022-11-15T06:04:45;47.20;;;25.50;;
52102;SDS011;38101;53.126;6.878;2022-11-15T06:07:10;39.47;;;24.58;;
52102;SDS011;38101;53.126;6.878;2022-11-15T06:09:36;39.95;;;25.52;;
52102;SDS011;38101;53.126;6.878;2022-11-15T06:12:01;42.97;;;26.05;;
52102;SDS011;38101;53.126;6.878;2022-11-15T06:14:27;39.65;;;23.65;;
52102;SDS011;38101;53.126;6.878;2022-11-15T06:16:53;39.25;;;23.42;;
52102;SDS011;38101;53.126;6.878;2022-11-15T06:19:18;40.72;;;23.65;;
52102;SDS011;38101;53.126;6.878;2022-11-15T06:21:44;38.67;;;24.35;;
52102;SDS011;38101;53.126;6.878;2022-11-15T06:24:10;40.15;;;25.48;;
52102;SDS011;38101;53.126;6.878;2022-11-15T06:26:35;38.65;;;23.23;;
52102;SDS011;38101;53.126;6.878;2022-11-15T06:29:02;37.67;;;23.35;;
52102;SDS011;38101;53.126;6.878;2022-11-15T06:31:29;37.92;;;23.02;;
52102;SDS011;38101;53.126;6.878;2022-11-15T06:33:55;38.47;;;22.95;;
52102;SDS011;38101;53.126;6.878;2022-11-15T06:36:21;37.63;;;22.35;;
52102;SDS011;38101;53.126;6.878;2022-11-15T06:38:46;35.53;;;23.35;;
52102;SDS011;38101;53.126;6.878;2022-11-15T06:41:13;32.20;;;21.80;;
52102;SDS011;38101;53.126;6.878;2022-11-15T06:43:39;38.97;;;22.50;;
52102;SDS011;38101;53.126;6.878;2022-11-15T06:46:06;31.40;;;20.80;;
52102;SDS011;38101;53.126;6.878;2022-11-15T06:48:32;36.80;;;23.08;;
52102;SDS011;38101;53.126;6.878;2022-11-15T06:50:59;34.95;;;22.60;;
52102;SDS011;38101;53.126;6.878;2022-11-15T06:53:27;33.03;;;22.33;;
52102;SDS011;38101;53.126;6.878;2022-11-15T06:55:56;34.15;;;21.50;;
52102;SDS011;38101;53.126;6.878;2022-11-15T06:58:24;39.85;;;22.27;;
52102;SDS011;38101;53.126;6.878;2022-11-15T07:00:50;31.85;;;21.85;;
52102;SDS011;38101;53.126;6.878;2022-11-15T07:03:15;31.35;;;21.52;;
52102;SDS011;38101;53.126;6.878;2022-11-15T07:05:41;31.38;;;20.95;;
52102;SDS011;38101;53.126;6.878;2022-11-15T07:08:07;30.67;;;19.35;;
52102;SDS011;38101;53.126;6.878;2022-11-15T07:10:32;29.45;;;20.40;;
52102;SDS011;38101;53.126;6.878;2022-11-15T07:12:58;32.20;;;20.90;;
52102;SDS011;38101;53.126;6.878;2022-11-15T07:15:24;31.65;;;21.65;;
52102;SDS011;38101;53.126;6.878;2022-11-15T07:17:50;29.45;;;20.50;;
52102;SDS011;38101;53.126;6.878;2022-11-15T07:20:16;34.40;;;20.85;;
52102;SDS011;38101;53.126;6.878;2022-11-15T07:22:43;28.45;;;20.13;;
52102;SDS011;38101;53.126;6.878;2022-11-15T07:25:10;31.55;;;20.10;;
52102;SDS011;38101;53.126;6.878;2022-11-15T07:27:36;28.05;;;18.85;;
52102;SDS011;38101;53.126;6.878;2022-11-15T07:30:02;27.17;;;19.38;;
52102;SDS011;38101;53.126;6.878;2022-11-15T07:32:28;31.70;;;19.90;;
52102;SDS011;38101;53.126;6.878;2022-11-15T07:34:54;28.85;;;20.13;;
52102;SDS011;38101;53.126;6.878;2022-11-15T07:37:20;31.00;;;18.88;;
52102;SDS011;38101;53.126;6.878;2022-11-15T07:39:46;28.63;;;19.67;;
52102;SDS011;38101;53.126;6.878;2022-11-15T07:42:11;27.05;;;18.20;;
52102;SDS011;38101;53.126;6.878;2022-11-15T07:45:15;24.70;;;18.23;;
52102;SDS011;38101;53.126;6.878;2022-11-15T07:47:44;27.90;;;18.33;;
52102;SDS011;38101;53.126;6.878;2022-11-15T07:50:11;26.27;;;17.85;;
52102;SDS011;38101;53.126;6.878;2022-11-15T07:52:36;23.33;;;17.77;;
52102;SDS011;38101;53.126;6.878;2022-11-15T07:55:02;25.05;;;17.50;;
52102;SDS011;38101;53.126;6.878;2022-11-15T07:57:29;25.73;;;17.55;;
52102;SDS011;38101;53.126;6.878;2022-11-15T07:59:55;24.25;;;17.50;;
52102;SDS011;38101;53.126;6.878;2022-11-15T08:02:20;24.08;;;17.38;;
52102;SDS011;38101;53.126;6.878;2022-11-15T08:04:46;27.70;;;18.05;;
52102;SDS011;38101;53.126;6.878;2022-11-15T08:07:12;25.77;;;18.40;;
52102;SDS011;38101;53.126;6.878;2022-11-15T08:09:37;25.17;;;17.48;;
52102;SDS011;38101;53.126;6.878;2022-11-15T08:12:03;25.25;;;16.90;;
52102;SDS011;38101;53.126;6.878;2022-11-15T08:14:29;25.83;;;17.33;;
52102;SDS011;38101;53.126;6.878;2022-11-15T08:16:54;26.40;;;17.30;;
52102;SDS011;38101;53.126;6.878;2022-11-15T08:19:20;23.92;;;16.52;;
52102;SDS011;38101;53.126;6.878;2022-11-15T08:21:46;26.23;;;17.90;;
52102;SDS011;38101;53.126;6.878;2022-11-15T08:24:11;27.05;;;18.17;;
52102;SDS011;38101;53.126;6.878;2022-11-15T08:26:37;22.88;;;16.58;;
52102;SDS011;38101;53.126;6.878;2022-11-15T08:29:04;23.95;;;16.75;;
52102;SDS011;38101;53.126;6.878;2022-11-15T08:31:30;25.55;;;17.52;;
52102;SDS011;38101;53.126;6.878;2022-11-15T08:33:56;26.88;;;17.23;;
52102;SDS011;38101;53.126;6.878;2022-11-15T08:36:21;24.33;;;17.23;;
52102;SDS011;38101;53.126;6.878;2022-11-15T08:38:47;23.15;;;16.90;;
52102;SDS011;38101;53.126;6.878;2022-11-15T08:41:16;26.05;;;18.05;;
52102;SDS011;38101;53.126;6.878;2022-11-15T08:44:00;24.35;;;16.98;;
52102;SDS011;38101;53.126;6.878;2022-11-15T08:46:26;24.30;;;16.95;;
52102;SDS011;38101;53.126;6.878;2022-11-15T08:48:52;24.75;;;16.27;;
52102;SDS011;38101;53.126;6.878;2022-11-15T08:51:17;21.73;;;16.58;;
52102;SDS011;38101;53.126;6.878;2022-11-15T08:53:43;24.17;;;16.98;;
52102;SDS011;38101;53.126;6.878;2022-11-15T08:56:10;21.40;;;16.38;;
52102;SDS011;38101;53.126;6.878;2022-11-15T08:58:36;23.13;;;17.02;;
52102;SDS011;38101;53.126;6.878;2022-11-15T09:01:02;25.67;;;17.25;;
52102;SDS011;38101;53.126;6.878;2022-11-15T09:03:29;23.10;;;16.98;;
52102;SDS011;38101;53.126;6.878;2022-11-15T09:05:55;20.15;;;15.55;;
52102;SDS011;38101;53.126;6.878;2022-11-15T09:08:25;23.15;;;16.92;;
52102;SDS011;38101;53.126;6.878;2022-11-15T09:10:54;21.25;;;16.67;;
52102;SDS011;38101;53.126;6.878;2022-11-15T09:13:20;21.48;;;16.30;;
52102;SDS011;38101;53.126;6.878;2022-11-15T09:15:47;20.17;;;16.02;;
52102;SDS011;38101;53.126;6.878;2022-11-15T09:18:13;21.00;;;15.73;;
52102;SDS011;38101;53.126;6.878;2022-11-15T09:20:38;20.90;;;15.80;;
52102;SDS011;38101;53.126;6.878;2022-11-15T09:23:04;23.60;;;16.65;;
52102;SDS011;38101;53.126;6.878;2022-11-15T09:25:31;19.90;;;15.55;;
52102;SDS011;38101;53.126;6.878;2022-11-15T09:27:57;23.85;;;16.40;;
52102;SDS011;38101;53.126;6.878;2022-11-15T09:30:24;23.23;;;16.65;;
52102;SDS011;38101;53.126;6.878;2022-11-15T09:32:50;21.67;;;16.73;;
52102;SDS011;38101;53.126;6.878;2022-11-15T09:35:16;22.10;;;16.98;;
52102;SDS011;38101;53.126;6.878;2022-11-15T09:37:42;21.55;;;16.23;;
52102;SDS011;38101;53.126;6.878;2022-11-15T09:40:09;22.80;;;17.48;;
52102;SDS011;38101;53.126;6.878;2022-11-15T09:45:34;22.42;;;17.25;;
52102;SDS011;38101;53.126;6.878;2022-11-15T09:50:59;23.42;;;17.55;;
52102;SDS011;38101;53.126;6.878;2022-11-15T09:56:03;22.77;;;16.95;;
52102;SDS011;38101;53.126;6.878;2022-11-15T10:01:21;23.13;;;17.90;;
52102;SDS011;38101;53.126;6.878;2022-11-15T10:04:01;23.58;;;17.85;;
52102;SDS011;38101;53.126;6.878;2022-11-15T10:06:27;26.45;;;18.42;;
52102;SDS011;38101;53.126;6.878;2022-11-15T10:08:55;24.98;;;17.38;;
52102;SDS011;38101;53.126;6.878;2022-11-15T10:11:33;31.65;;;19.70;;
52102;SDS011;38101;53.126;6.878;2022-11-15T10:14:02;33.53;;;19.77;;
52102;SDS011;38101;53.126;6.878;2022-11-15T10:16:59;36.22;;;20.88;;
52102;SDS011;38101;53.126;6.878;2022-11-15T10:25:11;31.50;;;18.40;;
52102;SDS011;38101;53.126;6.878;2022-11-15T10:27:50;23.90;;;17.85;;
52102;SDS011;38101;53.126;6.878;2022-11-15T10:30:28;23.13;;;17.75;;
52102;SDS011;38101;53.126;6.878;2022-11-15T10:32:57;25.15;;;18.15;;
52102;SDS011;38101;53.126;6.878;2022-11-15T10:35:27;25.40;;;18.42;;
52102;SDS011;38101;53.126;6.878;2022-11-15T10:38:04;23.95;;;18.85;;
52102;SDS011;38101;53.126;6.878;2022-11-15T10:40:32;24.52;;;19.00;;
52102;SDS011;38101;53.126;6.878;2022-11-15T10:43:31;26.40;;;18.92;;
52102;SDS011;38101;53.126;6.878;2022-11-15T10:45:51;24.17;;;17.85;;
52102;SDS011;38101;53.126;6.878;2022-11-15T10:50:44;25.00;;;18.70;;
52102;SDS011;38101;53.126;6.878;2022-11-15T10:53:18;26.67;;;18.52;;
52102;SDS011;38101;53.126;6.878;2022-11-15T10:55:48;25.05;;;18.75;;
52102;SDS011;38101;53.126;6.878;2022-11-15T11:00:47;23.52;;;17.98;;
52102;SDS011;38101;53.126;6.878;2022-11-15T11:03:57;23.13;;;18.60;;
52102;SDS011;38101;53.126;6.878;2022-11-15T11:08:53;27.85;;;18.95;;
52102;SDS011;38101;53.126;6.878;2022-11-15T11:11:23;26.20;;;18.40;;
52102;SDS011;38101;53.126;6.878;2022-11-15T11:13:49;23.65;;;18.30;;
52102;SDS011;38101;53.126;6.878;2022-11-15T11:19:19;19.33;;;15.52;;
52102;SDS011;38101;53.126;6.878;2022-11-15T11:22:11;17.40;;;14.18;;
52102;SDS011;38101;53.126;6.878;2022-11-15T11:30:24;16.85;;;14.13;;
52102;SDS011;38101;53.126;6.878;2022-11-15T11:33:17;19.02;;;14.95;;
52102;SDS011;38101;53.126;6.878;2022-11-15T11:36:15;18.08;;;14.68;;
52102;SDS011;38101;53.126;6.878;2022-11-15T11:39:15;17.90;;;14.75;;
52102;SDS011;38101;53.126;6.878;2022-11-15T11:44:51;17.27;;;14.45;;
52102;SDS011;38101;53.126;6.878;2022-11-15T11:47:39;32.00;;;16.45;;
52102;SDS011;38101;53.126;6.878;2022-11-15T11:50:13;56.88;;;19.38;;
52102;SDS011;38101;53.126;6.878;2022-11-15T11:55:19;18.95;;;12.85;;
52102;SDS011;38101;53.126;6.878;2022-11-15T11:57:57;16.65;;;13.20;;
52102;SDS011;38101;53.126;6.878;2022-11-15T12:00:51;15.18;;;12.93;;
52102;SDS011;38101;53.126;6.878;2022-11-15T12:17:16;31.95;;;10.88;;
52102;SDS011;38101;53.126;6.878;2022-11-15T12:19:45;13.93;;;9.02;;
52102;SDS011;38101;53.126;6.878;2022-11-15T12:22:21;10.63;;;7.68;;
52102;SDS011;38101;53.126;6.878;2022-11-15T12:25:02;12.65;;;8.48;;
52102;SDS011;38101;53.126;6.878;2022-11-15T12:27:33;11.25;;;7.72;;
52102;SDS011;38101;53.126;6.878;2022-11-15T12:32:39;8.50;;;6.38;;
52102;SDS011;38101;53.126;6.878;2022-11-15T12:35:21;10.20;;;6.75;;
52102;SDS011;38101;53.126;6.878;2022-11-15T12:38:02;7.32;;;5.90;;
52102;SDS011;38101;53.126;6.878;2022-11-15T12:40:36;7.68;;;5.95;;
52102;SDS011;38101;53.126;6.878;2022-11-15T12:43:04;8.18;;;6.03;;
52102;SDS011;38101;53.126;6.878;2022-11-15T12:45:34;8.65;;;5.55;;
52102;SDS011;38101;53.126;6.878;2022-11-15T13:06:48;13.95;;;6.72;;
52102;SDS011;38101;53.126;6.878;2022-11-15T13:11:57;24.38;;;6.97;;
52102;SDS011;38101;53.126;6.878;2022-11-15T13:22:39;5.78;;;4.47;;
52102;SDS011;38101;53.126;6.878;2022-11-15T13:25:27;7.15;;;5.50;;
52102;SDS011;38101;53.126;6.878;2022-11-15T13:28:01;8.65;;;4.82;;
52102;SDS011;38101;53.126;6.878;2022-11-15T13:30:32;8.18;;;5.00;;
52102;SDS011;38101;53.126;6.878;2022-11-15T13:32:58;6.25;;;4.65;;
52102;SDS011;38101;53.126;6.878;2022-11-15T13:37:59;5.60;;;4.32;;
52102;SDS011;38101;53.126;6.878;2022-11-15T13:40:33;5.50;;;4.30;;
52102;SDS011;38101;53.126;6.878;2022-11-15T13:44:05;7.65;;;4.00;;
52102;SDS011;38101;53.126;6.878;2022-11-15T13:46:04;6.50;;;4.20;;
52102;SDS011;38101;53.126;6.878;2022-11-15T13:48:29;7.38;;;3.95;;
52102;SDS011;38101;53.126;6.878;2022-11-15T13:50:55;5.68;;;3.50;;
52102;SDS011;38101;53.126;6.878;2022-11-15T13:53:22;6.13;;;3.60;;
52102;SDS011;38101;53.126;6.878;2022-11-15T13:55:49;5.32;;;3.70;;
52102;SDS011;38101;53.126;6.878;2022-11-15T13:58:16;5.00;;;3.78;;
52102;SDS011;38101;53.126;6.878;2022-11-15T14:00:45;6.07;;;3.50;;
52102;SDS011;38101;53.126;6.878;2022-11-15T14:06:08;6.50;;;4.22;;
52102;SDS011;38101;53.126;6.878;2022-11-15T14:08:36;5.70;;;3.80;;
52102;SDS011;38101;53.126;6.878;2022-11-15T14:11:17;5.45;;;3.90;;
52102;SDS011;38101;53.126;6.878;2022-11-15T14:14:08;7.45;;;3.75;;
52102;SDS011;38101;53.126;6.878;2022-11-15T14:16:39;5.22;;;3.70;;
52102;SDS011;38101;53.126;6.878;2022-11-15T14:19:09;4.68;;;3.35;;
52102;SDS011;38101;53.126;6.878;2022-11-15T14:21:37;4.82;;;3.30;;
52102;SDS011;38101;53.126;6.878;2022-11-15T14:24:22;6.75;;;3.45;;
52102;SDS011;38101;53.126;6.878;2022-11-15T14:26:56;7.47;;;3.95;;
52102;SDS011;38101;53.126;6.878;2022-11-15T14:31:47;9.45;;;4.13;;
52102;SDS011;38101;53.126;6.878;2022-11-15T14:34:13;17.98;;;5.38;;
52102;SDS011;38101;53.126;6.878;2022-11-15T14:36:39;19.85;;;5.68;;
52102;SDS011;38101;53.126;6.878;2022-11-15T14:39:04;17.35;;;4.90;;
52102;SDS011;38101;53.126;6.878;2022-11-15T14:41:33;6.82;;;3.95;;
52102;SDS011;38101;53.126;6.878;2022-11-15T14:44:03;53.75;;;9.65;;
52102;SDS011;38101;53.126;6.878;2022-11-15T14:46:29;37.38;;;6.85;;
52102;SDS011;38101;53.126;6.878;2022-11-15T14:48:55;20.35;;;5.13;;
52102;SDS011;38101;53.126;6.878;2022-11-15T14:51:21;18.50;;;4.85;;
52102;SDS011;38101;53.126;6.878;2022-11-15T14:53:47;6.20;;;3.88;;
52102;SDS011;38101;53.126;6.878;2022-11-15T14:56:13;6.25;;;3.47;;
52102;SDS011;38101;53.126;6.878;2022-11-15T14:58:40;5.50;;;3.50;;
52102;SDS011;38101;53.126;6.878;2022-11-15T15:01:10;6.30;;;4.10;;
52102;SDS011;38101;53.126;6.878;2022-11-15T15:03:39;5.60;;;4.05;;
52102;SDS011;38101;53.126;6.878;2022-11-15T15:06:07;6.28;;;3.80;;
52102;SDS011;38101;53.126;6.878;2022-11-15T15:08:34;5.28;;;3.38;;
52102;SDS011;38101;53.126;6.878;2022-11-15T15:10:59;7.50;;;3.85;;
52102;SDS011;38101;53.126;6.878;2022-11-15T15:13:25;5.68;;;3.50;;
52102;SDS011;38101;53.126;6.878;2022-11-15T15:15:51;5.97;;;3.72;;
52102;SDS011;38101;53.126;6.878;2022-11-15T15:18:17;6.13;;;3.78;;
52102;SDS011;38101;53.126;6.878;2022-11-15T15:20:44;11.20;;;4.25;;
52102;SDS011;38101;53.126;6.878;2022-11-15T15:23:19;6.95;;;3.72;;
52102;SDS011;38101;53.126;6.878;2022-11-15T15:25:46;6.78;;;3.72;;
52102;SDS011;38101;53.126;6.878;2022-11-15T15:28:13;5.82;;;4.25;;
52102;SDS011;38101;53.126;6.878;2022-11-15T15:30:40;7.03;;;4.30;;
52102;SDS011;38101;53.126;6.878;2022-11-15T15:33:06;7.97;;;5.03;;
52102;SDS011;38101;53.126;6.878;2022-11-15T15:35:32;8.07;;;4.95;;
52102;SDS011;38101;53.126;6.878;2022-11-15T15:38:02;7.60;;;4.90;;
52102;SDS011;38101;53.126;6.878;2022-11-15T15:40:29;9.18;;;5.75;;
52102;SDS011;38101;53.126;6.878;2022-11-15T15:42:56;10.07;;;5.28;;
52102;SDS011;38101;53.126;6.878;2022-11-15T15:45:22;9.35;;;4.93;;
52102;SDS011;38101;53.126;6.878;2022-11-15T15:47:50;6.50;;;4.45;;
52102;SDS011;38101;53.126;6.878;2022-11-15T15:50:50;11.85;;;4.50;;
52102;SDS011;38101;53.126;6.878;2022-11-15T15:53:09;6.60;;;4.05;;
52102;SDS011;38101;53.126;6.878;2022-11-15T15:55:36;10.85;;;5.03;;
52102;SDS011;38101;53.126;6.878;2022-11-15T15:58:03;8.93;;;4.80;;
52102;SDS011;38101;53.126;6.878;2022-11-15T16:00:29;7.85;;;5.03;;
52102;SDS011;38101;53.126;6.878;2022-11-15T16:02:58;8.63;;;5.05;;
52102;SDS011;38101;53.126;6.878;2022-11-15T16:05:24;9.70;;;5.18;;
52102;SDS011;38101;53.126;6.878;2022-11-15T16:07:50;11.30;;;6.53;;
52102;SDS011;38101;53.126;6.878;2022-11-15T16:10:29;10.10;;;6.78;;
52102;SDS011;38101;53.126;6.878;2022-11-15T16:12:57;7.65;;;5.93;;
52102;SDS011;38101;53.126;6.878;2022-11-15T16:15:24;6.65;;;5.47;;
52102;SDS011;38101;53.126;6.878;2022-11-15T16:17:56;8.05;;;6.22;;
52102;SDS011;38101;53.126;6.878;2022-11-15T16:23:01;8.20;;;5.10;;
52102;SDS011;38101;53.126;6.878;2022-11-15T16:25:28;7.05;;;5.43;;
52102;SDS011;38101;53.126;6.878;2022-11-15T16:27:58;8.40;;;5.20;;
52102;SDS011;38101;53.126;6.878;2022-11-15T16:30:23;11.60;;;6.25;;
52102;SDS011;38101;53.126;6.878;2022-11-15T16:32:49;10.52;;;5.70;;
52102;SDS011;38101;53.126;6.878;2022-11-15T16:35:15;9.70;;;5.50;;
52102;SDS011;38101;53.126;6.878;2022-11-15T16:37:44;9.40;;;5.70;;
52102;SDS011;38101;53.126;6.878;2022-11-15T16:40:24;10.48;;;6.28;;
52102;SDS011;38101;53.126;6.878;2022-11-15T16:42:52;10.02;;;5.72;;
52102;SDS011;38101;53.126;6.878;2022-11-15T16:45:18;8.65;;;5.68;;
52102;SDS011;38101;53.126;6.878;2022-11-15T16:47:44;8.05;;;5.30;;